createdAt,value
2022-07-29T00:00:03.447Z,33.9
2022-07-29T00:02:02.655Z,34.0
2022-07-29T00:04:02.258Z,34.1
2022-07-29T00:06:02.147Z,34.2
2022-07-29T00:08:02.339Z,34.2
2022-07-29T00:10:02.379Z,34.2
2022-07-29T00:12:03.497Z,34.2
2022-07-29T00:14:03.218Z,34.0
2022-07-29T00:16:04.383Z,34.0
2022-07-29T00:18:02.148Z,34.1
2022-07-29T00:20:02.882Z,34.1
2022-07-29T00:22:02.183Z,34.1
2022-07-29T00:24:02.358Z,34.1
2022-07-29T00:26:02.886Z,34.1
2022-07-29T00:28:02.180Z,34.1
2022-07-29T00:30:03.970Z,34.2
2022-07-29T00:32:03.501Z,34.2
2022-07-29T00:34:02.892Z,34.3
2022-07-29T00:36:02.163Z,34.3
2022-07-29T00:38:02.399Z,34.3
2022-07-29T00:40:03.029Z,34.4
2022-07-29T00:42:04.769Z,34.3
2022-07-29T00:44:02.133Z,34.3
2022-07-29T00:46:03.218Z,34.4
2022-07-29T00:48:02.325Z,34.5
2022-07-29T00:50:02.365Z,34.6
2022-07-29T00:52:03.535Z,34.7
2022-07-29T00:54:03.555Z,34.7
2022-07-29T00:56:02.311Z,34.7
2022-07-29T00:58:03.684Z,34.6
2022-07-29T01:00:03.538Z,34.5
2022-07-29T01:02:02.892Z,34.4
2022-07-29T01:04:02.268Z,34.3
2022-07-29T01:06:02.746Z,34.2
2022-07-29T01:08:03.832Z,33.9
2022-07-29T01:10:03.864Z,33.8
2022-07-29T01:12:03.059Z,33.7
2022-07-29T01:14:03.523Z,33.7
2022-07-29T01:16:09.351Z,33.7
2022-07-29T01:18:08.150Z,33.7
2022-07-29T01:20:10.686Z,33.7
2022-07-29T01:22:20.104Z,33.7
2022-07-29T01:24:18.294Z,33.6
2022-07-29T01:26:21.268Z,33.6
2022-07-29T01:28:17.665Z,33.6
2022-07-29T01:30:05.392Z,33.6
2022-07-29T01:32:07.070Z,33.6
2022-07-29T01:34:06.880Z,33.6
2022-07-29T01:36:08.327Z,33.4
2022-07-29T01:38:08.065Z,33.3
2022-07-29T01:40:05.696Z,33.2
2022-07-29T01:42:10.613Z,33.0
2022-07-29T01:44:11.259Z,32.9
2022-07-29T01:46:07.137Z,32.7
2022-07-29T01:48:11.376Z,32.6
2022-07-29T01:50:07.388Z,32.3
2022-07-29T01:52:08.472Z,32.2
2022-07-29T01:54:08.266Z,32.1
2022-07-29T01:56:03.993Z,31.9
2022-07-29T01:58:06.595Z,31.8
2022-07-29T02:00:05.957Z,31.7
2022-07-29T02:02:04.168Z,31.7
2022-07-29T02:04:06.789Z,31.6
2022-07-29T02:06:04.469Z,31.5
2022-07-29T02:08:03.375Z,31.3
2022-07-29T02:10:05.239Z,31.2
2022-07-29T02:12:05.010Z,31.2
2022-07-29T02:14:04.856Z,31.2
2022-07-29T02:16:05.963Z,31.1
2022-07-29T02:18:08.601Z,31.0
2022-07-29T02:20:04.815Z,30.9
2022-07-29T02:22:03.268Z,30.8
2022-07-29T02:24:05.138Z,30.7
2022-07-29T02:26:03.729Z,30.6
2022-07-29T02:28:03.995Z,30.4
2022-07-29T02:30:04.688Z,30.3
2022-07-29T02:32:04.674Z,30.2
2022-07-29T02:34:05.929Z,30.1
2022-07-29T02:36:03.706Z,29.9
2022-07-29T02:38:13.658Z,29.7
2022-07-29T02:40:04.051Z,29.6
2022-07-29T02:42:06.467Z,29.5
2022-07-29T02:44:07.426Z,29.5
2022-07-29T02:46:05.646Z,29.5
2022-07-29T02:48:07.821Z,29.4
2022-07-29T02:50:09.012Z,29.4
2022-07-29T02:52:04.915Z,29.3
2022-07-29T02:54:08.792Z,29.2
2022-07-29T02:56:08.497Z,29.1
2022-07-29T02:58:08.899Z,28.9
2022-07-29T03:00:06.840Z,28.9
2022-07-29T03:02:06.079Z,28.8
2022-07-29T03:04:05.443Z,28.8
2022-07-29T03:06:03.719Z,28.8
2022-07-29T03:08:05.822Z,28.9
2022-07-29T03:10:03.498Z,28.8
2022-07-29T03:12:03.261Z,28.8
2022-07-29T03:14:03.744Z,28.8
2022-07-29T03:16:03.583Z,28.6
2022-07-29T03:18:03.017Z,28.4
2022-07-29T03:20:03.396Z,28.3
2022-07-29T03:22:03.802Z,28.3
2022-07-29T03:24:06.768Z,28.4
2022-07-29T03:26:02.310Z,28.3
2022-07-29T03:28:02.121Z,28.2
2022-07-29T03:30:02.165Z,28.1
2022-07-29T03:32:06.006Z,27.9
2022-07-29T03:34:02.295Z,27.9
2022-07-29T03:36:03.466Z,27.8
2022-07-29T03:38:02.689Z,27.8
2022-07-29T03:40:06.271Z,27.8
2022-07-29T03:42:03.761Z,27.9
2022-07-29T03:44:05.204Z,27.8
2022-07-29T03:46:04.902Z,27.8
2022-07-29T03:48:08.320Z,27.7
2022-07-29T03:50:07.786Z,27.7
2022-07-29T03:52:02.885Z,27.6
2022-07-29T03:54:07.847Z,27.6
2022-07-29T03:56:04.033Z,27.4
2022-07-29T03:58:03.598Z,27.4
2022-07-29T04:00:04.751Z,27.3
2022-07-29T04:02:05.102Z,27.3
2022-07-29T04:04:04.380Z,27.2
2022-07-29T04:06:06.431Z,27.2
2022-07-29T04:08:02.216Z,27.1
2022-07-29T04:10:02.158Z,26.9
2022-07-29T04:12:04.117Z,26.9
2022-07-29T04:14:02.839Z,26.8
2022-07-29T04:16:02.822Z,26.7
2022-07-29T04:18:02.187Z,26.6
2022-07-29T04:20:02.203Z,26.3
2022-07-29T04:22:03.655Z,26.1
2022-07-29T04:24:02.305Z,25.8
2022-07-29T04:26:02.237Z,25.7
2022-07-29T04:28:02.301Z,25.7
2022-07-29T04:30:02.397Z,25.7
2022-07-29T04:32:02.742Z,25.8
2022-07-29T04:34:02.172Z,25.9
2022-07-29T04:36:02.891Z,25.8
2022-07-29T04:38:03.404Z,25.6
2022-07-29T04:40:02.538Z,25.4
2022-07-29T04:42:02.169Z,25.2
2022-07-29T04:44:05.565Z,25.1
2022-07-29T04:46:02.861Z,25.1
2022-07-29T04:48:02.854Z,25.2
2022-07-29T04:50:02.663Z,25.3
2022-07-29T04:52:02.162Z,25.3
2022-07-29T04:54:02.437Z,25.2
2022-07-29T04:56:02.915Z,25.1
2022-07-29T04:58:02.304Z,24.8
2022-07-29T05:00:02.612Z,24.7
2022-07-29T05:02:02.281Z,24.5
2022-07-29T05:04:02.142Z,24.3
2022-07-29T05:06:02.377Z,24.1
2022-07-29T05:08:02.757Z,23.9
2022-07-29T05:10:02.380Z,23.7
2022-07-29T05:12:03.328Z,23.4
2022-07-29T05:14:02.198Z,23.3
2022-07-29T05:16:02.998Z,23.2
2022-07-29T05:18:02.590Z,23.1
2022-07-29T05:20:02.241Z,22.9
2022-07-29T05:22:02.996Z,22.8
2022-07-29T05:24:02.423Z,22.7
2022-07-29T05:26:02.420Z,22.6
2022-07-29T05:28:02.250Z,22.6
2022-07-29T05:30:02.115Z,22.4
2022-07-29T05:32:02.239Z,22.5
2022-07-29T05:34:03.159Z,22.8
2022-07-29T05:36:02.552Z,23.0
2022-07-29T05:38:02.442Z,23.2
2022-07-29T05:40:02.588Z,23.4
2022-07-29T05:42:02.610Z,23.4
2022-07-29T05:44:02.732Z,23.6
2022-07-29T05:46:02.267Z,23.6
2022-07-29T05:48:02.326Z,23.8
2022-07-29T05:50:02.235Z,23.8
2022-07-29T05:52:02.220Z,23.8
2022-07-29T05:54:02.476Z,23.7
2022-07-29T05:56:05.552Z,23.7
2022-07-29T05:58:02.928Z,23.7
2022-07-29T06:00:02.580Z,23.7
2022-07-29T06:02:02.226Z,23.6
2022-07-29T06:04:02.589Z,23.6
2022-07-29T06:06:02.105Z,23.6
2022-07-29T06:08:02.906Z,23.6
2022-07-29T06:10:03.074Z,23.4
2022-07-29T06:12:03.788Z,23.4
2022-07-29T06:14:03.633Z,23.4
2022-07-29T06:16:02.281Z,23.3
2022-07-29T06:18:02.829Z,23.2
2022-07-29T06:20:02.337Z,22.9
2022-07-29T06:22:02.217Z,22.9
2022-07-29T06:24:02.565Z,23.0
2022-07-29T06:26:02.174Z,23.1
2022-07-29T06:28:02.896Z,23.2
2022-07-29T06:30:03.264Z,23.2
2022-07-29T06:32:02.835Z,23.2
2022-07-29T06:34:02.319Z,23.1
2022-07-29T06:36:04.416Z,23.1
2022-07-29T06:38:02.836Z,23.1
2022-07-29T06:40:12.123Z,22.9
2022-07-29T06:42:02.902Z,22.7
2022-07-29T06:44:02.950Z,22.7
2022-07-29T06:46:03.558Z,22.7
2022-07-29T06:48:02.914Z,22.7
2022-07-29T06:50:02.151Z,22.7
2022-07-29T06:52:02.846Z,22.7
2022-07-29T06:54:03.716Z,22.8
2022-07-29T06:56:04.875Z,22.7
2022-07-29T06:58:02.164Z,22.5
2022-07-29T07:00:04.777Z,22.4
2022-07-29T07:02:02.173Z,22.4
2022-07-29T07:04:02.679Z,22.4
2022-07-29T07:06:02.727Z,22.4
2022-07-29T07:08:02.376Z,22.3
2022-07-29T07:10:02.211Z,22.2
2022-07-29T07:12:02.912Z,22.1
2022-07-29T07:14:04.380Z,21.9
2022-07-29T07:16:03.513Z,21.8
2022-07-29T07:18:02.148Z,21.7
2022-07-29T07:20:02.331Z,21.5
2022-07-29T07:22:02.141Z,21.3
2022-07-29T07:24:02.840Z,21.2
2022-07-29T07:26:02.156Z,21.1
2022-07-29T07:28:02.915Z,21.0
2022-07-29T07:30:03.432Z,20.9
2022-07-29T07:32:03.115Z,20.8
2022-07-29T07:34:02.667Z,20.7
2022-07-29T07:36:02.353Z,20.6
2022-07-29T07:38:02.783Z,20.6
2022-07-29T07:40:04.090Z,20.5
2022-07-29T07:42:02.720Z,20.4
2022-07-29T07:44:02.213Z,20.3
2022-07-29T07:46:02.207Z,20.3
2022-07-29T07:48:02.847Z,20.6
2022-07-29T07:50:02.266Z,21.0
2022-07-29T07:52:02.231Z,21.3
2022-07-29T07:54:02.117Z,21.6
2022-07-29T07:56:12.277Z,21.8
2022-07-29T07:58:02.173Z,22.1
2022-07-29T08:00:02.918Z,22.2
2022-07-29T08:02:03.037Z,22.2
2022-07-29T08:04:02.683Z,22.1
2022-07-29T08:06:02.211Z,21.9
2022-07-29T08:08:02.148Z,21.8
2022-07-29T08:10:02.842Z,21.7
2022-07-29T08:12:04.319Z,21.4
2022-07-29T08:14:02.702Z,21.3
2022-07-29T08:16:11.491Z,21.1
2022-07-29T08:18:08.382Z,20.9
2022-07-29T08:20:03.190Z,20.8
2022-07-29T08:22:02.098Z,20.7
2022-07-29T08:24:13.038Z,20.6
2022-07-29T08:26:02.175Z,20.5
2022-07-29T08:28:02.247Z,20.4
2022-07-29T08:30:02.116Z,20.3
2022-07-29T08:32:02.418Z,20.3
2022-07-29T08:34:03.046Z,20.2
2022-07-29T08:36:02.853Z,20.2
2022-07-29T08:38:03.906Z,20.1
2022-07-29T08:40:02.147Z,20.1
2022-07-29T08:42:02.802Z,20.0
2022-07-29T08:44:02.170Z,20.0
2022-07-29T08:46:02.540Z,19.9
2022-07-29T08:48:02.589Z,19.8
2022-07-29T08:50:02.163Z,19.8
2022-07-29T08:52:03.743Z,19.8
2022-07-29T08:54:03.552Z,19.8
2022-07-29T08:56:03.157Z,19.8
2022-07-29T08:58:02.953Z,19.8
2022-07-29T09:00:07.913Z,20.1
2022-07-29T09:02:04.203Z,20.4
2022-07-29T09:04:04.172Z,20.9
2022-07-29T09:06:02.735Z,21.3
2022-07-29T09:08:03.256Z,21.6
2022-07-29T09:10:04.825Z,21.7
2022-07-29T09:12:04.491Z,21.7
2022-07-29T09:14:02.160Z,21.7
2022-07-29T09:16:08.626Z,21.6
2022-07-29T09:18:02.973Z,21.4
2022-07-29T09:20:09.963Z,21.2
2022-07-29T09:22:04.766Z,21.1
2022-07-29T09:24:07.383Z,20.9
2022-07-29T09:26:06.666Z,20.8
2022-07-29T09:28:08.468Z,20.6
2022-07-29T09:30:05.905Z,20.4
2022-07-29T09:32:07.653Z,20.3
2022-07-29T09:34:03.218Z,20.2
2022-07-29T09:36:05.926Z,20.0
2022-07-29T09:38:13.082Z,19.9
2022-07-29T09:40:13.677Z,19.8
2022-07-29T09:42:04.832Z,19.8
2022-07-29T09:44:03.167Z,19.7
2022-07-29T09:46:12.559Z,19.6
2022-07-29T09:48:15.247Z,19.4
2022-07-29T09:50:02.326Z,19.3
2022-07-29T09:52:05.740Z,19.3
2022-07-29T09:54:04.563Z,19.2
2022-07-29T09:56:03.290Z,19.2
2022-07-29T09:58:19.705Z,19.1
2022-07-29T10:00:06.372Z,19.1
2022-07-29T10:02:12.088Z,19.1
2022-07-29T10:04:02.685Z,19.0
2022-07-29T10:06:07.459Z,18.9
2022-07-29T10:08:02.690Z,18.9
2022-07-29T10:10:02.401Z,18.9
2022-07-29T10:12:09.519Z,18.9
2022-07-29T10:14:04.167Z,18.8
2022-07-29T10:16:02.598Z,18.8
2022-07-29T10:18:02.625Z,18.8
2022-07-29T10:20:02.917Z,18.8
2022-07-29T10:22:05.059Z,18.7
2022-07-29T10:24:03.244Z,18.7
2022-07-29T10:26:03.900Z,18.7
2022-07-29T10:28:02.141Z,18.6
2022-07-29T10:30:02.452Z,18.6
2022-07-29T10:32:13.913Z,18.6
2022-07-29T10:34:15.529Z,18.5
2022-07-29T10:36:11.369Z,18.5
2022-07-29T10:38:21.205Z,18.5
2022-07-29T10:40:21.361Z,18.5
2022-07-29T10:42:14.054Z,18.4
2022-07-29T10:44:06.405Z,18.4
2022-07-29T10:46:04.152Z,18.4
2022-07-29T10:48:07.964Z,18.4
2022-07-29T10:50:07.139Z,18.4
2022-07-29T10:52:06.433Z,18.4
2022-07-29T10:54:06.140Z,18.3
2022-07-29T10:56:06.403Z,18.3
2022-07-29T10:58:13.162Z,18.3
2022-07-29T11:00:21.196Z,18.3
2022-07-29T11:02:27.871Z,18.3
2022-07-29T11:04:02.149Z,18.3
2022-07-29T11:06:02.296Z,18.3
2022-07-29T11:08:26.498Z,18.3
2022-07-29T11:10:21.265Z,18.3
2022-07-29T11:12:03.004Z,18.3
2022-07-29T11:14:02.199Z,18.3
2022-07-29T11:16:02.789Z,18.3
2022-07-29T11:18:06.042Z,18.3
2022-07-29T11:20:21.246Z,18.3
2022-07-29T11:22:04.219Z,18.3
2022-07-29T11:24:14.832Z,18.3
2022-07-29T11:26:18.742Z,18.2
2022-07-29T11:28:16.006Z,18.2
2022-07-29T11:30:04.210Z,18.2
2022-07-29T11:32:15.883Z,18.2
2022-07-29T11:34:20.904Z,18.2
2022-07-29T11:38:21.509Z,18.2
2022-07-29T11:40:11.305Z,18.2
2022-07-29T11:42:32.642Z,18.2
2022-07-29T11:44:02.250Z,18.1
2022-07-29T11:46:03.011Z,18.1
2022-07-29T11:48:29.971Z,18.1
2022-07-29T11:50:04.858Z,18.1
2022-07-29T11:52:03.449Z,18.1
2022-07-29T11:54:05.279Z,18.0
2022-07-29T11:56:04.778Z,18.0
2022-07-29T11:58:03.893Z,17.9
2022-07-29T12:00:09.538Z,18.0
2022-07-29T12:02:33.209Z,17.9
2022-07-29T12:04:07.268Z,17.9
2022-07-29T12:06:02.509Z,17.9
2022-07-29T12:08:14.768Z,17.9
2022-07-29T12:10:02.595Z,17.9
2022-07-29T12:12:05.461Z,17.9
2022-07-29T12:14:03.464Z,17.9
2022-07-29T12:16:02.323Z,17.9
2022-07-29T12:18:12.464Z,17.9
2022-07-29T12:20:04.349Z,17.9
2022-07-29T12:22:03.417Z,17.8
2022-07-29T12:24:05.876Z,17.8
2022-07-29T12:26:07.634Z,17.8
2022-07-29T12:28:05.514Z,17.8
2022-07-29T12:30:04.977Z,17.8
2022-07-29T12:32:03.381Z,17.8
2022-07-29T12:34:02.687Z,17.8
2022-07-29T12:36:07.553Z,17.8
2022-07-29T12:38:02.417Z,17.8
2022-07-29T12:40:02.659Z,17.8
2022-07-29T12:42:14.801Z,17.8
2022-07-29T12:44:02.743Z,17.8
2022-07-29T12:46:13.894Z,17.8
2022-07-29T12:48:02.646Z,17.8
2022-07-29T12:50:11.125Z,17.8
2022-07-29T12:52:21.203Z,17.8
2022-07-29T12:54:07.703Z,17.8
2022-07-29T12:56:07.992Z,17.8
2022-07-29T12:58:03.066Z,17.7
2022-07-29T13:00:08.535Z,17.7
2022-07-29T13:02:04.642Z,17.7
2022-07-29T13:04:02.748Z,17.7
2022-07-29T13:06:02.852Z,17.7
2022-07-29T13:08:20.226Z,17.7
2022-07-29T13:10:13.236Z,17.7
2022-07-29T13:12:08.393Z,17.7
2022-07-29T13:14:06.853Z,17.7
2022-07-29T13:16:08.377Z,17.7
2022-07-29T13:18:02.351Z,17.6
2022-07-29T13:20:09.812Z,17.7
2022-07-29T13:22:02.355Z,17.6
2022-07-29T13:24:02.250Z,17.6
2022-07-29T13:26:07.864Z,17.6
2022-07-29T13:28:02.310Z,17.6
2022-07-29T13:30:05.958Z,17.6
2022-07-29T13:32:02.472Z,17.6
2022-07-29T13:34:02.327Z,17.6
2022-07-29T13:36:02.664Z,17.6
2022-07-29T13:38:02.184Z,17.6
2022-07-29T13:40:04.559Z,17.6
2022-07-29T13:42:02.995Z,17.6
2022-07-29T13:44:02.249Z,17.6
2022-07-29T13:46:02.431Z,17.6
2022-07-29T13:48:02.158Z,17.6
2022-07-29T13:50:03.265Z,17.6
2022-07-29T13:52:03.822Z,17.6
2022-07-29T13:54:02.650Z,17.6
2022-07-29T13:56:02.210Z,17.6
2022-07-29T13:58:03.061Z,17.6
2022-07-29T14:00:02.817Z,17.6
2022-07-29T14:02:02.131Z,17.6
2022-07-29T14:04:03.315Z,17.7
2022-07-29T14:06:02.366Z,17.7
2022-07-29T14:08:02.197Z,17.7
2022-07-29T14:10:03.097Z,17.7
2022-07-29T14:12:03.183Z,17.7
2022-07-29T14:14:02.299Z,17.7
2022-07-29T14:16:02.183Z,17.8
2022-07-29T14:18:03.372Z,17.8
2022-07-29T14:20:02.285Z,17.8
2022-07-29T14:22:03.811Z,17.8
2022-07-29T14:24:02.121Z,17.8
2022-07-29T14:26:02.380Z,17.8
2022-07-29T14:28:02.117Z,17.9
2022-07-29T14:30:02.306Z,17.9
2022-07-29T14:32:03.161Z,17.9
2022-07-29T14:34:03.194Z,18.0
2022-07-29T14:36:02.392Z,18.1
2022-07-29T14:38:02.378Z,18.1
2022-07-29T14:40:03.991Z,18.1
2022-07-29T14:42:02.157Z,18.2
2022-07-29T14:44:02.916Z,18.2
2022-07-29T14:46:07.963Z,18.2
2022-07-29T14:48:02.335Z,18.3
2022-07-29T14:50:02.670Z,18.3
2022-07-29T14:52:02.184Z,18.3
2022-07-29T14:54:03.148Z,18.4
2022-07-29T14:56:15.305Z,18.4
2022-07-29T14:58:09.670Z,18.4
2022-07-29T15:00:02.313Z,18.5
2022-07-29T15:02:02.802Z,18.5
2022-07-29T15:04:02.106Z,18.6
2022-07-29T15:06:02.522Z,18.6
2022-07-29T15:08:02.902Z,18.7
2022-07-29T15:10:02.934Z,18.7
2022-07-29T15:12:03.468Z,18.8
2022-07-29T15:14:02.184Z,18.8
2022-07-29T15:16:02.233Z,18.8
2022-07-29T15:18:02.195Z,18.9
2022-07-29T15:20:02.426Z,18.9
2022-07-29T15:22:02.775Z,18.9
2022-07-29T15:24:02.883Z,19.1
2022-07-29T15:26:02.182Z,19.1
2022-07-29T15:28:03.450Z,19.2
2022-07-29T15:30:02.730Z,19.2
2022-07-29T15:32:02.570Z,19.3
2022-07-29T15:34:05.962Z,19.3
2022-07-29T15:36:02.294Z,19.4
2022-07-29T15:38:02.212Z,19.6
2022-07-29T15:40:02.149Z,19.7
2022-07-29T15:42:04.457Z,19.8
2022-07-29T15:44:02.186Z,19.8
2022-07-29T15:46:12.965Z,20.0
2022-07-29T15:48:02.065Z,20.1
2022-07-29T15:50:02.330Z,20.2
2022-07-29T15:52:03.927Z,20.3
2022-07-29T15:54:03.433Z,20.4
2022-07-29T15:56:03.059Z,20.6
2022-07-29T15:58:02.485Z,20.7
2022-07-29T16:00:02.572Z,20.8
2022-07-29T16:02:02.962Z,21.0
2022-07-29T16:04:02.402Z,21.1
2022-07-29T16:06:02.856Z,21.2
2022-07-29T16:08:02.970Z,21.3
2022-07-29T16:10:02.627Z,21.4
2022-07-29T16:12:02.148Z,21.6
2022-07-29T16:14:02.824Z,21.8
2022-07-29T16:16:03.184Z,21.9
2022-07-29T16:18:02.328Z,22.1
2022-07-29T16:20:02.516Z,22.2
2022-07-29T16:22:02.279Z,22.4
2022-07-29T16:24:03.211Z,22.6
2022-07-29T16:26:02.157Z,22.7
2022-07-29T16:28:02.795Z,22.8
2022-07-29T16:30:02.236Z,22.9
2022-07-29T16:32:02.543Z,23.1
2022-07-29T16:34:02.850Z,23.2
2022-07-29T16:36:02.154Z,23.3
2022-07-29T16:38:02.171Z,23.3
2022-07-29T16:40:03.104Z,23.4
2022-07-29T16:42:05.295Z,23.6
2022-07-29T16:44:02.864Z,23.7
2022-07-29T16:46:02.405Z,23.8
2022-07-29T16:48:03.187Z,23.9
2022-07-29T16:50:02.997Z,24.1
2022-07-29T16:52:02.229Z,24.2
2022-07-29T16:54:02.354Z,24.3
2022-07-29T16:56:02.234Z,24.3
2022-07-29T16:58:02.913Z,24.4
2022-07-29T17:00:03.615Z,24.5
2022-07-29T17:02:02.805Z,24.7
2022-07-29T17:04:08.771Z,24.8
2022-07-29T17:06:03.485Z,24.8
2022-07-29T17:08:02.670Z,24.9
2022-07-29T17:10:04.568Z,25.1
2022-07-29T17:12:02.706Z,25.2
2022-07-29T17:14:02.120Z,25.2
2022-07-29T17:16:02.215Z,25.3
2022-07-29T17:18:02.447Z,25.5
2022-07-29T17:20:03.226Z,25.6
2022-07-29T17:22:12.987Z,25.7
2022-07-29T17:24:02.878Z,25.8
2022-07-29T17:26:03.065Z,25.9
2022-07-29T17:28:02.144Z,25.9
2022-07-29T17:30:02.758Z,26.1
2022-07-29T17:32:03.182Z,26.2
2022-07-29T17:34:02.593Z,26.3
2022-07-29T17:36:11.584Z,26.4
2022-07-29T17:38:02.222Z,26.4
2022-07-29T17:40:03.187Z,26.6
2022-07-29T17:42:02.322Z,26.7
2022-07-29T17:44:03.243Z,26.7
2022-07-29T17:46:03.031Z,26.8
2022-07-29T17:48:02.117Z,26.9
2022-07-29T17:50:03.111Z,26.9
2022-07-29T17:52:02.350Z,27.1
2022-07-29T17:54:03.880Z,27.1
2022-07-29T17:56:02.565Z,27.2
2022-07-29T17:58:03.497Z,27.3
2022-07-29T18:00:02.220Z,27.4
2022-07-29T18:02:02.266Z,27.4
2022-07-29T18:04:02.968Z,27.6
2022-07-29T18:06:02.406Z,27.7
2022-07-29T18:08:02.772Z,27.7
2022-07-29T18:10:02.644Z,27.8
2022-07-29T18:12:02.156Z,27.9
2022-07-29T18:14:02.178Z,27.9
2022-07-29T18:16:03.148Z,28.1
2022-07-29T18:18:02.337Z,28.2
2022-07-29T18:20:02.264Z,28.2
2022-07-29T18:22:05.161Z,28.3
2022-07-29T18:24:02.781Z,28.4
2022-07-29T18:26:02.195Z,28.5
2022-07-29T18:28:02.201Z,28.6
2022-07-29T18:30:04.620Z,28.8
2022-07-29T18:32:04.299Z,28.8
2022-07-29T18:34:02.298Z,28.9
2022-07-29T18:36:10.800Z,29.0
2022-07-29T18:38:03.080Z,29.1
2022-07-29T18:40:02.208Z,29.2
2022-07-29T18:42:02.322Z,29.2
2022-07-29T18:44:02.403Z,29.3
2022-07-29T18:46:04.928Z,29.4
2022-07-29T18:48:03.016Z,29.5
2022-07-29T18:50:02.786Z,29.6
2022-07-29T18:52:02.181Z,29.7
2022-07-29T18:54:02.275Z,29.8
2022-07-29T18:56:03.034Z,29.8
2022-07-29T18:58:02.731Z,29.9
2022-07-29T19:00:03.161Z,29.9
2022-07-29T19:02:02.775Z,30.0
2022-07-29T19:04:02.242Z,30.4
2022-07-29T19:06:03.097Z,31.0
2022-07-29T19:08:02.252Z,31.3
2022-07-29T19:10:04.215Z,31.3
2022-07-29T19:12:03.786Z,31.2
2022-07-29T19:14:02.799Z,31.0
2022-07-29T19:16:02.200Z,30.9
2022-07-29T19:18:04.002Z,30.9
2022-07-29T19:20:02.289Z,30.8
2022-07-29T19:22:02.599Z,30.9
2022-07-29T19:24:07.719Z,31.0
2022-07-29T19:26:02.552Z,31.3
2022-07-29T19:28:02.735Z,31.8
2022-07-29T19:30:05.386Z,32.1
2022-07-29T19:32:02.781Z,32.1
2022-07-29T19:34:02.721Z,32.1
2022-07-29T19:36:03.524Z,32.1
2022-07-29T19:38:02.774Z,32.1
2022-07-29T19:40:02.174Z,32.0
2022-07-29T19:42:03.457Z,32.1
2022-07-29T19:44:02.227Z,32.7
2022-07-29T19:46:02.391Z,33.1
2022-07-29T19:48:04.638Z,33.6
2022-07-29T19:50:03.454Z,33.9
2022-07-29T19:52:02.854Z,34.1
2022-07-29T19:54:03.502Z,34.2
2022-07-29T19:56:02.173Z,34.1
2022-07-29T19:58:03.995Z,33.9
2022-07-29T20:00:02.165Z,33.8
2022-07-29T20:02:02.244Z,33.6
2022-07-29T20:04:02.250Z,33.4
2022-07-29T20:06:03.418Z,33.3
2022-07-29T20:08:04.422Z,33.2
2022-07-29T20:10:03.832Z,33.1
2022-07-29T20:12:04.008Z,33.2
2022-07-29T20:14:02.234Z,33.7
2022-07-29T20:16:05.222Z,34.1
2022-07-29T20:18:02.480Z,34.3
2022-07-29T20:20:03.693Z,34.5
2022-07-29T20:22:03.265Z,34.7
2022-07-29T20:24:03.969Z,34.8
2022-07-29T20:26:04.219Z,34.9
2022-07-29T20:28:02.152Z,34.9
2022-07-29T20:30:03.237Z,35.2
2022-07-29T20:32:03.612Z,35.2
2022-07-29T20:34:02.340Z,35.4
2022-07-29T20:36:02.128Z,35.4
2022-07-29T20:38:02.201Z,35.4
2022-07-29T20:40:02.807Z,35.4
2022-07-29T20:42:02.405Z,35.3
2022-07-29T20:44:03.680Z,35.3
2022-07-29T20:46:02.420Z,35.4
2022-07-29T20:48:02.281Z,35.6
2022-07-29T20:50:02.157Z,35.7
2022-07-29T20:52:02.145Z,35.6
2022-07-29T20:54:03.242Z,35.6
2022-07-29T20:56:02.224Z,35.4
2022-07-29T20:58:03.089Z,35.4
2022-07-29T21:00:02.137Z,35.5
2022-07-29T21:02:02.230Z,35.4
2022-07-29T21:04:02.645Z,35.3
2022-07-29T21:06:03.404Z,35.4
2022-07-29T21:08:02.278Z,35.3
2022-07-29T21:10:02.978Z,35.2
2022-07-29T21:12:02.506Z,35.3
2022-07-29T21:14:02.211Z,35.3
2022-07-29T21:16:06.335Z,35.3
2022-07-29T21:18:05.544Z,35.3
2022-07-29T21:20:04.036Z,35.2
2022-07-29T21:22:03.248Z,35.0
2022-07-29T21:24:03.178Z,34.8
2022-07-29T21:26:03.295Z,34.8
2022-07-29T21:28:11.608Z,34.9
2022-07-29T21:30:02.371Z,34.9
2022-07-29T21:32:02.136Z,34.9
2022-07-29T21:34:02.328Z,34.9
2022-07-29T21:36:20.600Z,35.0
2022-07-29T21:38:02.163Z,34.9
2022-07-29T21:40:02.171Z,34.8
2022-07-29T21:42:03.271Z,34.8
2022-07-29T21:44:02.179Z,34.8
2022-07-29T21:46:03.027Z,34.9
2022-07-29T21:48:02.113Z,35.0
2022-07-29T21:50:02.830Z,35.1
2022-07-29T21:52:02.131Z,35.1
2022-07-29T21:54:03.345Z,35.2
2022-07-29T21:56:02.188Z,35.3
2022-07-29T21:58:03.412Z,35.4
2022-07-29T22:00:02.984Z,35.5
2022-07-29T22:02:02.237Z,35.6
2022-07-29T22:04:02.200Z,35.5
2022-07-29T22:06:02.356Z,35.4
2022-07-29T22:08:02.433Z,35.3
2022-07-29T22:10:02.809Z,35.3
2022-07-29T22:12:02.344Z,35.2
2022-07-29T22:14:02.192Z,35.3
2022-07-29T22:16:02.228Z,35.3
2022-07-29T22:18:03.221Z,35.3
2022-07-29T22:20:02.851Z,35.4
2022-07-29T22:22:02.312Z,35.3
2022-07-29T22:24:02.810Z,35.3
2022-07-29T22:26:03.487Z,35.2
2022-07-29T22:28:02.156Z,35.2
2022-07-29T22:30:04.118Z,35.2
2022-07-29T22:32:02.705Z,35.1
2022-07-29T22:34:03.999Z,35.1
2022-07-29T22:36:02.142Z,35.1
2022-07-29T22:38:02.129Z,35.1
2022-07-29T22:40:03.164Z,35.1
2022-07-29T22:42:02.149Z,35.1
2022-07-29T22:44:02.324Z,35.0
2022-07-29T22:46:02.399Z,34.9
2022-07-29T22:48:02.203Z,34.9
2022-07-29T22:50:02.262Z,35.0
2022-07-29T22:52:02.867Z,35.1
2022-07-29T22:54:02.164Z,35.2
2022-07-29T22:56:02.148Z,35.2
2022-07-29T22:58:02.340Z,35.3
2022-07-29T23:00:03.243Z,35.4
2022-07-29T23:02:02.205Z,35.3
2022-07-29T23:04:02.423Z,35.3
2022-07-29T23:06:02.360Z,35.2
2022-07-29T23:08:02.389Z,35.2
2022-07-29T23:10:03.377Z,35.0
2022-07-29T23:12:02.741Z,34.9
2022-07-29T23:14:02.197Z,34.7
2022-07-29T23:16:02.450Z,34.7
2022-07-29T23:18:02.527Z,34.7
2022-07-29T23:20:02.217Z,34.8
2022-07-29T23:22:02.901Z,34.8
2022-07-29T23:24:02.139Z,34.9
2022-07-29T23:26:02.191Z,34.9
2022-07-29T23:28:03.762Z,34.9
2022-07-29T23:30:04.133Z,34.9
2022-07-29T23:32:02.745Z,34.8
2022-07-29T23:34:02.370Z,34.8
2022-07-29T23:36:02.204Z,34.8
2022-07-29T23:38:02.721Z,34.9
2022-07-29T23:40:02.541Z,34.9
2022-07-29T23:42:04.338Z,34.9
2022-07-29T23:44:02.165Z,34.9
2022-07-29T23:46:02.476Z,34.9
2022-07-29T23:48:02.134Z,34.8
2022-07-29T23:50:03.115Z,34.8
2022-07-29T23:52:02.157Z,34.7
2022-07-29T23:54:02.335Z,34.7
2022-07-29T23:56:02.236Z,34.6
2022-07-29T23:58:02.788Z,34.7
